Time;durP1;ratioP1;P1;durP2;ratioP2;P2;SDS_P1;SDS_P2;PMS_P1;PMS_P2;Temp;Humidity;BMP_temperature;BMP_pressure;BME280_temperature;BME280_humidity;BME280_pressure;Samples;Min_cycle;Max_cycle;Signal;HPM_P1;HPM_P2
2024/01/26 00:00:53;;;;;;;47.57;31.20;;;;;21.30;101268.00;;;;2061349;28;20725;-58
2024/01/26 00:01:53;;;;;;;51.10;32.30;;;;;21.40;101270.00;;;;2067481;28;20287;-58
2024/01/26 00:02:54;;;;;;;45.73;30.60;;;;;21.30;101258.00;;;;2069466;28;20230;-56
2024/01/26 00:03:54;;;;;;;45.07;31.10;;;;;21.30;101268.00;;;;2066565;28;20198;-56
2024/01/26 00:04:54;;;;;;;45.47;31.03;;;;;21.30;101258.00;;;;2068369;28;20312;-57
2024/01/26 00:05:55;;;;;;;49.80;31.40;;;;;21.40;101266.00;;;;2083456;28;20205;-57
2024/01/26 00:06:55;;;;;;;45.53;30.90;;;;;21.40;101258.00;;;;2064254;28;20214;-57
2024/01/26 00:07:56;;;;;;;46.53;29.63;;;;;21.30;101263.00;;;;2063116;28;20264;-57
2024/01/26 00:08:56;;;;;;;45.23;30.13;;;;;21.30;101261.00;;;;2065846;28;20213;-57
2024/01/26 00:09:56;;;;;;;45.93;30.90;;;;;21.30;101258.00;;;;2060113;28;20257;-57
2024/01/26 00:10:57;;;;;;;44.47;29.47;;;;;21.30;101264.00;;;;2077776;28;20239;-57
2024/01/26 00:11:57;;;;;;;46.10;31.80;;;;;21.30;101259.00;;;;2075643;28;20217;-58
2024/01/26 00:12:58;;;;;;;42.80;29.37;;;;;21.30;101262.00;;;;2075857;28;20777;-58
2024/01/26 00:13:58;;;;;;;38.90;29.17;;;;;21.30;101265.00;;;;2063037;28;20562;-58
2024/01/26 00:14:58;;;;;;;44.07;29.80;;;;;21.30;101261.00;;;;2077140;28;20591;-59
2024/01/26 00:15:59;;;;;;;40.90;29.03;;;;;21.30;101258.00;;;;2080805;28;20657;-57
2024/01/26 00:16:59;;;;;;;39.23;28.13;;;;;21.30;101260.00;;;;2070409;28;20675;-59
2024/01/26 00:18:00;;;;;;;41.10;27.73;;;;;21.30;101261.00;;;;2077329;28;20248;-57
2024/01/26 00:19:00;;;;;;;42.27;27.57;;;;;21.30;101258.00;;;;2061671;28;20210;-58
2024/01/26 00:20:00;;;;;;;40.17;27.20;;;;;21.30;101256.00;;;;2064623;28;20219;-58
2024/01/26 00:21:01;;;;;;;42.90;28.10;;;;;21.30;101295.00;;;;2076861;28;20690;-58
2024/01/26 00:22:01;;;;;;;43.40;27.80;;;;;21.30;101255.00;;;;2065837;28;20763;-58
2024/01/26 00:23:01;;;;;;;39.30;28.30;;;;;21.30;101252.00;;;;2077485;28;20217;-58
2024/01/26 00:24:02;;;;;;;36.30;26.33;;;;;21.30;101251.00;;;;2061762;28;20744;-56
2024/01/26 00:25:03;;;;;;;42.77;28.87;;;;;21.30;101253.00;;;;2077156;28;20225;-58
2024/01/26 00:26:03;;;;;;;39.63;27.80;;;;;21.30;101252.00;;;;2068615;28;20225;-57
2024/01/26 00:27:03;;;;;;;39.70;27.67;;;;;21.30;101258.00;;;;2069034;28;20246;-57
2024/01/26 00:28:04;;;;;;;38.17;26.20;;;;;21.20;101258.00;;;;2067136;28;20732;-61
2024/01/26 00:29:04;;;;;;;38.67;26.67;;;;;21.30;101259.00;;;;2058417;28;20222;-60
2024/01/26 00:30:06;;;;;;;41.77;27.17;;;;;21.30;101256.00;;;;2072754;28;20244;-59
2024/01/26 00:31:07;;;;;;;38.30;26.92;;;;;21.30;101255.00;;;;2073055;28;20218;-58
2024/01/26 00:32:07;;;;;;;40.83;26.30;;;;;21.20;101261.00;;;;2077590;28;20209;-59
2024/01/26 00:33:07;;;;;;;37.17;24.53;;;;;21.20;101247.00;;;;2071306;28;20220;-56
2024/01/26 00:34:08;;;;;;;36.00;25.63;;;;;21.20;101248.00;;;;2056787;28;20276;-57
2024/01/26 00:35:08;;;;;;;39.17;26.30;;;;;21.20;101249.00;;;;2076722;28;20304;-57
2024/01/26 00:36:08;;;;;;;38.90;24.47;;;;;21.30;101247.00;;;;2068261;28;20209;-57
2024/01/26 00:37:09;;;;;;;37.67;26.07;;;;;21.20;101247.00;;;;2078328;28;20904;-59
2024/01/26 00:38:09;;;;;;;35.57;25.20;;;;;21.20;101235.00;;;;2071913;28;20279;-58
2024/01/26 00:39:10;;;;;;;40.37;27.07;;;;;21.20;101236.00;;;;2068518;28;20285;-57
2024/01/26 00:40:11;;;;;;;39.50;26.40;;;;;21.20;101238.00;;;;2072322;28;20706;-59
2024/01/26 00:41:11;;;;;;;34.30;25.17;;;;;21.20;101237.00;;;;2069198;28;20483;-57
2024/01/26 00:42:12;;;;;;;38.97;24.03;;;;;21.20;101235.00;;;;2075800;28;20340;-58
2024/01/26 00:43:12;;;;;;;35.27;24.60;;;;;21.20;101239.00;;;;2066131;28;20232;-57
2024/01/26 00:44:12;;;;;;;39.53;26.07;;;;;21.20;101244.00;;;;2062151;28;20209;-56
2024/01/26 00:45:13;;;;;;;35.37;23.43;;;;;21.20;101234.00;;;;2074091;28;20202;-58
2024/01/26 00:46:13;;;;;;;33.30;23.67;;;;;21.20;101239.00;;;;2078238;28;20232;-58
2024/01/26 00:47:14;;;;;;;35.27;24.27;;;;;21.20;101225.00;;;;2074631;28;21332;-59
2024/01/26 00:48:14;;;;;;;35.13;23.03;;;;;21.20;101220.00;;;;2073820;28;20215;-57
2024/01/26 00:49:14;;;;;;;34.37;23.70;;;;;21.20;101231.00;;;;2062663;28;20210;-57
2024/01/26 00:50:15;;;;;;;31.67;23.23;;;;;21.20;101237.00;;;;2065789;28;20201;-57
2024/01/26 00:51:15;;;;;;;35.23;24.70;;;;;21.20;101238.00;;;;2078453;28;20510;-57
2024/01/26 00:52:16;;;;;;;34.40;23.20;;;;;21.20;101235.00;;;;2070186;28;20213;-56
2024/01/26 00:53:17;;;;;;;33.33;23.17;;;;;21.20;101238.00;;;;2077394;28;20228;-57
2024/01/26 00:54:18;;;;;;;33.45;22.65;;;;;21.20;101238.00;;;;2056576;28;20662;-57
2024/01/26 00:55:18;;;;;;;32.40;22.27;;;;;21.20;101241.00;;;;2066235;28;20221;-58
2024/01/26 00:56:18;;;;;;;30.20;21.20;;;;;21.10;101236.00;;;;2074703;28;20211;-57
2024/01/26 00:57:19;;;;;;;28.07;21.50;;;;;21.20;101235.00;;;;2073287;28;20293;-57
2024/01/26 00:58:19;;;;;;;34.87;22.70;;;;;21.20;101225.00;;;;2078262;28;20217;-57
2024/01/26 00:59:19;;;;;;;32.67;22.67;;;;;21.20;101228.00;;;;2056512;28;20272;-58
2024/01/26 01:00:20;;;;;;;32.77;21.57;;;;;21.20;101230.00;;;;2070247;28;20625;-58
2024/01/26 01:01:20;;;;;;;31.23;22.40;;;;;21.10;101238.00;;;;2069101;28;20241;-58
2024/01/26 01:02:20;;;;;;;32.17;22.70;;;;;21.10;101225.00;;;;2070383;28;20213;-57
2024/01/26 01:03:21;;;;;;;32.87;21.47;;;;;21.10;101223.00;;;;2070318;28;20217;-58
2024/01/26 01:04:22;;;;;;;30.17;21.43;;;;;21.10;101226.00;;;;2062927;28;20206;-57
2024/01/26 01:05:22;;;;;;;28.45;21.73;;;;;21.10;101225.00;;;;2074113;28;20212;-58
2024/01/26 01:06:22;;;;;;;28.17;21.30;;;;;21.10;101213.00;;;;2076081;28;20198;-58
2024/01/26 01:07:23;;;;;;;27.43;19.70;;;;;21.10;101224.00;;;;2070178;28;20210;-57
2024/01/26 01:08:23;;;;;;;29.43;20.47;;;;;21.10;101215.00;;;;2070321;28;20226;-58
2024/01/26 01:09:24;;;;;;;31.50;21.67;;;;;21.10;101216.00;;;;2058727;28;20256;-57
2024/01/26 01:10:24;;;;;;;32.10;21.20;;;;;21.10;101223.00;;;;2071170;28;20205;-58
2024/01/26 01:11:24;;;;;;;28.80;20.47;;;;;21.10;101223.00;;;;2078550;28;20213;-57
2024/01/26 01:12:25;;;;;;;31.10;20.97;;;;;21.10;101221.00;;;;2065591;28;20199;-59
2024/01/26 01:13:25;;;;;;;29.43;20.50;;;;;21.10;101230.00;;;;2070237;28;20757;-59
2024/01/26 01:14:26;;;;;;;27.93;19.50;;;;;21.10;101233.00;;;;2066364;28;20208;-56
2024/01/26 01:15:26;;;;;;;28.93;19.80;;;;;21.10;101216.00;;;;2070805;28;20332;-59
2024/01/26 01:16:28;;;;;;;29.60;19.90;;;;;21.10;101221.00;;;;2066598;28;20241;-57
2024/01/26 01:17:28;;;;;;;26.77;20.30;;;;;21.10;101214.00;;;;2069887;28;20709;-57
2024/01/26 01:18:28;;;;;;;30.43;20.33;;;;;21.10;101211.00;;;;2060520;28;20222;-57
2024/01/26 01:19:29;;;;;;;28.33;19.43;;;;;21.10;101218.00;;;;2068340;28;20225;-57
2024/01/26 01:20:29;;;;;;;27.03;19.30;;;;;21.10;101212.00;;;;2068258;28;20314;-60
2024/01/26 01:21:30;;;;;;;29.03;19.50;;;;;21.10;101212.00;;;;2067063;28;20221;-59
2024/01/26 01:22:30;;;;;;;25.77;18.20;;;;;21.10;101203.00;;;;2067423;28;20604;-58
2024/01/26 01:23:30;;;;;;;26.00;17.63;;;;;21.10;101212.00;;;;2058630;28;20707;-58
2024/01/26 01:24:31;;;;;;;29.77;18.97;;;;;21.10;101213.00;;;;2072298;28;20229;-58
2024/01/26 01:25:31;;;;;;;26.30;18.43;;;;;21.10;101206.00;;;;2072329;28;20276;-57
2024/01/26 01:26:32;;;;;;;22.13;16.60;;;;;21.10;101209.00;;;;2065278;28;20245;-58
2024/01/26 01:27:33;;;;;;;26.93;18.63;;;;;21.10;101209.00;;;;2076128;28;20320;-59
2024/01/26 01:28:33;;;;;;;27.73;18.85;;;;;21.10;101209.00;;;;2058411;28;20277;-58
2024/01/26 01:29:34;;;;;;;25.60;18.87;;;;;21.10;101215.00;;;;2067400;28;21060;-58
2024/01/26 01:30:34;;;;;;;28.07;18.83;;;;;21.10;101225.00;;;;2066774;28;20637;-59
2024/01/26 01:31:35;;;;;;;24.50;16.67;;;;;21.10;101221.00;;;;2074662;28;21381;-58
2024/01/26 01:32:35;;;;;;;24.53;18.03;;;;;21.10;101215.00;;;;2071863;28;20702;-58
2024/01/26 01:33:35;;;;;;;26.93;18.50;;;;;21.10;101215.00;;;;2054848;28;20249;-58
2024/01/26 01:34:37;;;;;;;27.80;18.30;;;;;21.10;101216.00;;;;2073073;28;20592;-58
2024/01/26 01:35:37;;;;;;;23.80;16.83;;;;;21.10;101211.00;;;;2069665;28;20209;-59
2024/01/26 01:36:37;;;;;;;22.57;15.77;;;;;21.00;101216.00;;;;2076007;28;20214;-59
2024/01/26 01:37:38;;;;;;;26.00;17.43;;;;;21.00;101214.00;;;;2069079;28;20214;-58
2024/01/26 01:38:38;;;;;;;24.17;17.37;;;;;21.00;101217.00;;;;2065650;28;20329;-59
2024/01/26 01:39:38;;;;;;;23.97;17.00;;;;;21.00;101219.00;;;;2078029;28;20221;-58
2024/01/26 01:40:39;;;;;;;22.77;15.60;;;;;21.00;101222.00;;;;2069193;28;20222;-59
2024/01/26 01:41:39;;;;;;;22.83;16.63;;;;;21.00;101220.00;;;;2076363;28;20308;-57
2024/01/26 01:42:41;;;;;;;21.37;15.77;;;;;21.00;101218.00;;;;2069433;28;20215;-61
2024/01/26 01:43:41;;;;;;;24.75;16.88;;;;;21.00;101216.00;;;;2065967;28;20228;-58
2024/01/26 01:44:45;;;;;;;24.00;16.70;;;;;21.00;101212.00;;;;2072945;28;20297;-57
2024/01/26 01:45:46;;;;;;;22.08;16.02;;;;;21.00;101222.00;;;;2077518;28;20220;-58
2024/01/26 01:46:46;;;;;;;20.40;15.37;;;;;21.00;101213.00;;;;2077917;28;20244;-59
2024/01/26 01:47:46;;;;;;;21.70;15.10;;;;;21.00;101211.00;;;;2059706;28;20226;-59
2024/01/26 01:48:47;;;;;;;25.10;16.90;;;;;21.00;101215.00;;;;2067602;28;20727;-58
2024/01/26 01:49:48;;;;;;;22.97;15.53;;;;;21.00;101218.00;;;;2066231;28;20218;-58
2024/01/26 01:50:48;;;;;;;21.60;15.50;;;;;21.00;101221.00;;;;2065064;28;20467;-59
2024/01/26 01:51:48;;;;;;;21.23;15.20;;;;;21.00;101201.00;;;;2059266;28;20214;-59
2024/01/26 01:52:49;;;;;;;21.43;15.57;;;;;21.00;101215.00;;;;2067513;28;20285;-57
2024/01/26 01:53:49;;;;;;;25.00;15.80;;;;;21.00;101213.00;;;;2046376;28;20232;-58
2024/01/26 01:54:50;;;;;;;23.83;15.97;;;;;21.00;101210.00;;;;2056709;28;20214;-59
2024/01/26 01:55:51;;;;;;;20.53;15.13;;;;;21.00;101205.00;;;;2058016;28;20227;-57
2024/01/26 01:56:53;;;;;;;21.35;14.38;;;;;21.00;101211.00;;;;2057362;28;20792;-58
2024/01/26 01:57:54;;;;;;;19.45;14.55;;;;;21.00;101206.00;;;;2069502;28;20224;-57
2024/01/26 01:58:55;;;;;;;22.40;15.35;;;;;21.00;101210.00;;;;2062969;28;20320;-57
2024/01/26 01:59:55;;;;;;;22.33;14.80;;;;;21.00;101207.00;;;;2077032;28;20745;-57
2024/01/26 02:00:55;;;;;;;21.00;14.73;;;;;20.90;101215.00;;;;2077457;28;20220;-58
2024/01/26 02:01:56;;;;;;;21.30;14.63;;;;;20.90;101208.00;;;;2067684;28;20404;-56
2024/01/26 02:02:56;;;;;;;20.47;13.67;;;;;21.00;101115.00;;;;2076689;28;20213;-58
2024/01/26 02:04:01;;;;;;;18.70;13.27;;;;;21.00;101215.00;;;;2059740;28;20248;-56
2024/01/26 02:05:01;;;;;;;23.17;14.65;;;;;21.00;101206.00;;;;2070886;28;22918;-58
2024/01/26 02:06:02;;;;;;;19.40;14.30;;;;;21.00;101212.00;;;;2060251;28;20226;-57
2024/01/26 02:07:03;;;;;;;20.77;14.13;;;;;20.90;101200.00;;;;2066614;28;20654;-57
2024/01/26 02:08:04;;;;;;;18.83;13.67;;;;;20.90;101209.00;;;;2071360;28;20237;-57
2024/01/26 02:09:05;;;;;;;20.27;13.53;;;;;20.90;101200.00;;;;2066228;28;20217;-57
2024/01/26 02:10:12;;;;;;;19.33;13.07;;;;;20.90;101189.00;;;;2063949;28;20663;-58
2024/01/26 02:11:12;;;;;;;18.98;12.88;;;;;20.90;101192.00;;;;2072476;28;20662;-57
2024/01/26 02:12:13;;;;;;;19.33;14.57;;;;;20.90;101188.00;;;;2074017;28;20220;-56
2024/01/26 02:13:13;;;;;;;19.23;13.57;;;;;20.90;101190.00;;;;2077087;28;20214;-62
2024/01/26 02:14:14;;;;;;;19.00;14.23;;;;;20.90;101189.00;;;;2062165;28;20213;-58
2024/01/26 02:15:14;;;;;;;17.87;12.97;;;;;20.90;101197.00;;;;2071479;28;20239;-58
2024/01/26 02:16:14;;;;;;;16.50;12.63;;;;;20.90;101186.00;;;;2075827;28;20213;-59
2024/01/26 02:17:15;;;;;;;17.87;13.00;;;;;20.90;101192.00;;;;2067640;28;20674;-58
2024/01/26 02:18:15;;;;;;;21.70;14.17;;;;;20.90;101182.00;;;;2077473;28;20209;-56
2024/01/26 02:19:16;;;;;;;17.20;11.57;;;;;20.90;101177.00;;;;2058508;28;21114;-57
2024/01/26 02:20:16;;;;;;;17.40;12.53;;;;;20.90;101184.00;;;;2068364;28;20334;-57
2024/01/26 02:21:17;;;;;;;18.23;12.57;;;;;20.90;101186.00;;;;2067539;28;21022;-57
2024/01/26 02:22:18;;;;;;;16.60;12.27;;;;;20.90;101183.00;;;;2069357;28;20217;-57
2024/01/26 02:23:24;;;;;;;16.77;11.40;;;;;20.90;101178.00;;;;2068716;28;20721;-57
2024/01/26 02:24:24;;;;;;;19.77;12.23;;;;;20.90;101183.00;;;;2054833;28;20683;-58
2024/01/26 02:25:25;;;;;;;19.83;13.07;;;;;20.90;101183.00;;;;2069512;28;20345;-57
2024/01/26 02:26:25;;;;;;;19.20;13.33;;;;;20.90;101190.00;;;;2069979;28;20777;-57
2024/01/26 02:27:25;;;;;;;16.17;11.80;;;;;20.90;101187.00;;;;2074428;28;20584;-57
2024/01/26 02:28:26;;;;;;;16.30;12.03;;;;;20.90;101190.00;;;;2066442;28;20574;-57
2024/01/26 02:29:26;;;;;;;18.97;13.20;;;;;20.90;101176.00;;;;2061875;28;20236;-57
2024/01/26 02:30:26;;;;;;;15.77;11.40;;;;;20.90;101176.00;;;;2075303;28;20209;-57
2024/01/26 02:31:27;;;;;;;16.90;11.90;;;;;20.90;101175.00;;;;2070758;28;20284;-58
2024/01/26 02:32:27;;;;;;;18.03;12.10;;;;;20.90;101168.00;;;;2077557;28;20224;-58
2024/01/26 02:33:27;;;;;;;15.20;11.73;;;;;20.90;101174.00;;;;2068657;28;20216;-59
2024/01/26 02:34:28;;;;;;;17.43;11.50;;;;;20.90;101168.00;;;;2071580;28;20210;-57
2024/01/26 02:35:28;;;;;;;16.00;10.77;;;;;20.90;101167.00;;;;2064192;28;20226;-56
2024/01/26 02:36:29;;;;;;;17.63;11.93;;;;;20.90;101184.00;;;;2071429;28;20202;-58
2024/01/26 02:37:29;;;;;;;17.83;12.17;;;;;20.90;101173.00;;;;2068880;28;20246;-58
2024/01/26 02:38:30;;;;;;;15.70;11.90;;;;;20.90;101175.00;;;;2060763;28;20449;-59
2024/01/26 02:39:32;;;;;;;15.23;10.80;;;;;20.90;101179.00;;;;2076114;28;20213;-57
2024/01/26 02:40:33;;;;;;;15.73;11.02;;;;;20.90;101179.00;;;;2072407;28;20221;-58
2024/01/26 02:41:34;;;;;;;13.30;9.93;;;;;20.90;101178.00;;;;2074549;28;20876;-59
2024/01/26 02:42:34;;;;;;;16.90;12.13;;;;;20.90;101172.00;;;;2065282;28;20238;-57
2024/01/26 02:43:34;;;;;;;14.60;11.03;;;;;20.80;101175.00;;;;2063095;28;20206;-56
2024/01/26 02:44:35;;;;;;;15.87;11.90;;;;;20.80;101177.00;;;;2071135;28;20210;-58
2024/01/26 02:45:35;;;;;;;16.00;11.57;;;;;20.80;101168.00;;;;2073180;28;20270;-57
2024/01/26 02:46:35;;;;;;;14.60;11.00;;;;;20.90;101181.00;;;;2076391;28;20217;-59
2024/01/26 02:47:36;;;;;;;18.07;10.83;;;;;20.90;101185.00;;;;2073954;28;20224;-57
2024/01/26 02:48:36;;;;;;;18.53;11.30;;;;;20.80;101191.00;;;;2067495;28;20216;-57
2024/01/26 02:49:37;;;;;;;13.80;10.50;;;;;20.80;101171.00;;;;2069277;28;20224;-57
2024/01/26 02:50:38;;;;;;;15.10;10.47;;;;;20.80;101168.00;;;;2075736;28;20252;-57
2024/01/26 02:51:38;;;;;;;14.53;11.20;;;;;20.80;101176.00;;;;2072323;28;20212;-58
2024/01/26 02:52:38;;;;;;;13.73;10.60;;;;;20.80;101167.00;;;;2071749;28;20461;-59
2024/01/26 02:53:39;;;;;;;14.27;9.97;;;;;20.80;101164.00;;;;2067112;28;20220;-58
2024/01/26 02:54:39;;;;;;;15.00;10.37;;;;;20.90;101163.00;;;;2053100;28;20219;-57
2024/01/26 02:55:40;;;;;;;15.53;10.20;;;;;20.80;101158.00;;;;2059891;28;20242;-57
2024/01/26 02:56:40;;;;;;;16.83;11.40;;;;;20.80;101159.00;;;;2062047;28;20223;-59
2024/01/26 02:57:40;;;;;;;14.47;9.80;;;;;20.80;101151.00;;;;2066631;28;20210;-58
2024/01/26 02:58:41;;;;;;;13.77;9.50;;;;;20.80;101146.00;;;;2056122;28;21012;-57
2024/01/26 02:59:41;;;;;;;15.10;10.70;;;;;20.80;101146.00;;;;2067091;28;20248;-58
2024/01/26 03:00:41;;;;;;;14.90;10.20;;;;;20.80;101151.00;;;;2069176;28;20210;-57
2024/01/26 03:01:42;;;;;;;12.80;9.70;;;;;20.80;101147.00;;;;2064467;28;20310;-57
2024/01/26 03:02:42;;;;;;;13.50;9.37;;;;;20.80;101149.00;;;;2072334;28;20227;-57
2024/01/26 03:03:43;;;;;;;13.70;9.13;;;;;20.80;101151.00;;;;2067517;28;20213;-58
2024/01/26 03:04:43;;;;;;;13.37;9.30;;;;;20.80;101147.00;;;;2069235;28;20242;-57
2024/01/26 03:05:43;;;;;;;14.00;9.70;;;;;20.80;101150.00;;;;2073093;28;20897;-58
2024/01/26 03:06:43;;;;;;;12.47;8.70;;;;;20.80;101156.00;;;;2076243;28;20684;-57
2024/01/26 03:07:44;;;;;;;12.47;9.60;;;;;20.80;101150.00;;;;2059235;28;20272;-57
2024/01/26 03:08:44;;;;;;;12.53;9.00;;;;;20.80;101153.00;;;;2064198;28;20214;-57
2024/01/26 03:09:44;;;;;;;13.77;9.80;;;;;20.80;101154.00;;;;2069866;28;20272;-57
2024/01/26 03:10:45;;;;;;;14.30;9.97;;;;;20.80;101152.00;;;;2076256;28;20217;-57
2024/01/26 03:11:45;;;;;;;12.83;9.70;;;;;20.80;101149.00;;;;2071668;28;20222;-58
2024/01/26 03:12:47;;;;;;;12.20;8.30;;;;;20.80;101145.00;;;;2075526;28;20209;-58
2024/01/26 03:13:47;;;;;;;12.02;8.10;;;;;20.80;101049.00;;;;2056407;28;20226;-58
2024/01/26 03:14:48;;;;;;;12.97;9.67;;;;;20.80;101152.00;;;;2059278;28;20573;-58
2024/01/26 03:15:50;;;;;;;15.37;9.43;;;;;20.80;101154.00;;;;2075914;28;20205;-59
2024/01/26 03:16:50;;;;;;;12.13;8.45;;;;;20.80;101152.00;;;;2069809;28;20217;-59
2024/01/26 03:17:50;;;;;;;13.90;8.47;;;;;20.80;101153.00;;;;2076692;28;20240;-57
2024/01/26 03:18:51;;;;;;;11.63;7.97;;;;;20.80;101149.00;;;;2059992;28;20225;-59
2024/01/26 03:19:51;;;;;;;10.53;8.53;;;;;20.80;101153.00;;;;2077062;28;20217;-58
2024/01/26 03:20:51;;;;;;;11.83;8.57;;;;;20.40;101151.00;;;;2075769;28;20301;-58
2024/01/26 03:21:52;;;;;;;11.30;8.17;;;;;20.40;101149.00;;;;2068645;28;20224;-59
2024/01/26 03:22:52;;;;;;;11.23;8.20;;;;;20.70;101148.00;;;;2076005;28;20222;-57
2024/01/26 03:23:52;;;;;;;11.43;7.70;;;;;20.40;101148.00;;;;2055502;28;20313;-57
2024/01/26 03:24:56;;;;;;;15.00;9.50;;;;;20.70;101147.00;;;;2075512;28;20224;-56
2024/01/26 03:25:56;;;;;;;12.77;8.60;;;;;20.80;101145.00;;;;2069564;28;21108;-59
2024/01/26 03:26:56;;;;;;;10.00;8.07;;;;;20.80;101151.00;;;;2076826;28;20236;-58
2024/01/26 03:27:57;;;;;;;11.77;8.40;;;;;20.80;101151.00;;;;2074022;28;20221;-56
2024/01/26 03:28:57;;;;;;;10.90;8.00;;;;;20.80;101141.00;;;;2049109;28;20230;-56
2024/01/26 03:29:57;;;;;;;11.20;7.80;;;;;20.80;101135.00;;;;2075257;28;20283;-57
2024/01/26 03:30:58;;;;;;;11.87;7.73;;;;;20.80;101134.00;;;;2065735;28;20272;-57
2024/01/26 03:31:58;;;;;;;10.47;7.60;;;;;20.80;101141.00;;;;2077278;28;20210;-58
2024/01/26 03:32:59;;;;;;;10.40;7.77;;;;;20.80;101140.00;;;;2070563;28;20692;-58
2024/01/26 03:33:59;;;;;;;9.07;7.40;;;;;20.80;101134.00;;;;2065815;28;20772;-57
2024/01/26 03:34:59;;;;;;;11.63;7.83;;;;;20.80;101131.00;;;;2075668;28;20209;-57
2024/01/26 03:35:59;;;;;;;10.60;7.90;;;;;20.80;101132.00;;;;2070170;28;20260;-58
2024/01/26 03:37:00;;;;;;;11.93;7.57;;;;;20.70;101122.00;;;;2076281;28;20210;-57
2024/01/26 03:38:01;;;;;;;13.20;7.90;;;;;20.70;101127.00;;;;2067117;28;20215;-57
2024/01/26 03:39:02;;;;;;;9.47;6.97;;;;;20.20;101117.00;;;;2064748;28;20249;-57
2024/01/26 03:40:03;;;;;;;9.93;7.43;;;;;20.70;101116.00;;;;2072981;28;20513;-60
2024/01/26 03:41:03;;;;;;;12.10;7.50;;;;;20.70;101117.00;;;;2077257;28;21285;-60
2024/01/26 03:42:05;;;;;;;10.77;7.50;;;;;20.70;101116.00;;;;2075831;28;20210;-62
2024/01/26 03:43:06;;;;;;;10.68;7.30;;;;;20.70;101112.00;;;;2062890;28;20223;-60
2024/01/26 03:44:07;;;;;;;12.00;7.70;;;;;20.70;101119.00;;;;2068610;28;20232;-59
2024/01/26 03:45:07;;;;;;;10.13;7.40;;;;;20.70;101103.00;;;;2073765;28;20329;-57
2024/01/26 03:46:08;;;;;;;10.40;7.67;;;;;20.70;101103.00;;;;2079438;28;20502;-62
2024/01/26 03:47:09;;;;;;;11.53;7.90;;;;;20.70;101115.00;;;;2071824;28;20311;-59
2024/01/26 03:48:09;;;;;;;9.60;6.78;;;;;20.70;101116.00;;;;2070902;28;20225;-58
2024/01/26 03:49:09;;;;;;;9.73;6.80;;;;;20.70;101112.00;;;;2065362;28;20222;-59
2024/01/26 03:50:10;;;;;;;10.43;7.13;;;;;20.70;101112.00;;;;2070223;28;20214;-61
2024/01/26 03:51:11;;;;;;;12.50;7.97;;;;;20.70;101113.00;;;;2077112;28;20241;-59
2024/01/26 03:52:12;;;;;;;10.73;7.50;;;;;20.70;101113.00;;;;2068885;28;20211;-58
2024/01/26 03:53:12;;;;;;;9.57;6.87;;;;;20.70;101110.00;;;;2075390;28;20221;-62
2024/01/26 03:54:12;;;;;;;8.17;6.37;;;;;20.70;101106.00;;;;2060632;28;20233;-61
2024/01/26 03:55:13;;;;;;;11.90;6.80;;;;;20.70;101115.00;;;;2071709;28;20221;-58
2024/01/26 03:56:13;;;;;;;9.30;6.90;;;;;20.70;101120.00;;;;2073022;28;20301;-60
2024/01/26 03:57:13;;;;;;;8.57;6.17;;;;;20.70;101117.00;;;;2065919;28;20214;-61
2024/01/26 03:58:14;;;;;;;9.80;7.27;;;;;20.70;101117.00;;;;2077177;28;20217;-61
2024/01/26 03:59:14;;;;;;;9.07;6.57;;;;;20.70;101117.00;;;;2060348;28;20217;-62
2024/01/26 04:00:15;;;;;;;10.07;6.93;;;;;20.70;101112.00;;;;2076016;28;20217;-62
2024/01/26 04:01:16;;;;;;;10.33;7.37;;;;;20.70;101117.00;;;;2073368;28;20241;-59
2024/01/26 04:02:17;;;;;;;9.50;6.50;;;;;20.70;101113.00;;;;2066968;28;20444;-58
2024/01/26 04:03:18;;;;;;;10.52;6.78;;;;;20.70;101108.00;;;;2074706;28;20787;-57
2024/01/26 04:04:19;;;;;;;9.70;6.93;;;;;20.70;101110.00;;;;2061066;28;20213;-58
2024/01/26 04:05:19;;;;;;;9.48;6.72;;;;;20.70;101106.00;;;;2078807;28;20201;-58
2024/01/26 04:06:20;;;;;;;9.33;6.63;;;;;20.70;101099.00;;;;2072720;28;20205;-61
2024/01/26 04:07:20;;;;;;;10.30;6.93;;;;;20.70;101100.00;;;;2078434;28;20209;-61
2024/01/26 04:08:20;;;;;;;8.67;6.17;;;;;20.70;101099.00;;;;2071886;28;20278;-60
2024/01/26 04:09:21;;;;;;;9.17;6.70;;;;;20.60;101088.00;;;;2057172;28;20210;-60
2024/01/26 04:10:21;;;;;;;7.97;5.80;;;;;20.70;101089.00;;;;2075829;28;20213;-60
2024/01/26 04:11:21;;;;;;;10.40;6.60;;;;;20.60;101079.00;;;;2069681;28;20210;-59
2024/01/26 04:12:23;;;;;;;9.30;6.20;;;;;20.60;101075.00;;;;2077543;28;20214;-59
2024/01/26 04:13:23;;;;;;;8.88;6.53;;;;;20.70;101109.00;;;;2073663;28;20279;-57
2024/01/26 04:14:23;;;;;;;9.50;6.53;;;;;20.60;101056.00;;;;2066629;28;20756;-61
2024/01/26 04:15:24;;;;;;;11.10;7.17;;;;;20.60;101074.00;;;;2070454;28;20650;-61
2024/01/26 04:16:24;;;;;;;8.50;5.73;;;;;20.70;101069.00;;;;2069587;28;20544;-60
2024/01/26 04:17:24;;;;;;;9.13;5.97;;;;;20.70;101079.00;;;;2074306;28;20259;-61
2024/01/26 04:18:24;;;;;;;8.80;6.10;;;;;20.60;101071.00;;;;2070780;28;20823;-59
2024/01/26 04:19:25;;;;;;;9.53;6.23;;;;;20.70;101059.00;;;;2068518;28;20682;-60
2024/01/26 04:20:25;;;;;;;6.50;5.10;;;;;20.60;101096.00;;;;2073707;28;20738;-58
2024/01/26 04:21:25;;;;;;;9.63;6.40;;;;;20.60;101057.00;;;;2078696;28;20628;-62
2024/01/26 04:22:26;;;;;;;8.50;5.63;;;;;20.60;101058.00;;;;2072976;28;20229;-62
2024/01/26 04:23:26;;;;;;;8.30;5.37;;;;;20.60;101055.00;;;;2073801;28;20217;-61
2024/01/26 04:24:26;;;;;;;8.37;5.30;;;;;20.60;101060.00;;;;2064565;28;20301;-60
2024/01/26 04:25:27;;;;;;;9.97;5.77;;;;;20.60;101055.00;;;;2071159;28;20232;-60
2024/01/26 04:26:27;;;;;;;9.53;6.00;;;;;20.60;101056.00;;;;2078624;28;20205;-58
2024/01/26 04:27:28;;;;;;;6.90;5.47;;;;;20.60;101057.00;;;;2075009;28;20355;-62
2024/01/26 04:28:28;;;;;;;8.13;5.57;;;;;20.60;101067.00;;;;2069496;28;20217;-62
2024/01/26 04:29:28;;;;;;;8.00;5.23;;;;;20.60;101057.00;;;;2066930;28;20250;-58
2024/01/26 04:30:29;;;;;;;8.93;5.90;;;;;20.60;101064.00;;;;2066755;28;20236;-58
2024/01/26 04:31:29;;;;;;;9.03;5.00;;;;;20.60;101054.00;;;;2067983;28;20245;-59
2024/01/26 04:32:29;;;;;;;7.77;5.80;;;;;20.60;101046.00;;;;2070009;28;20808;-59
2024/01/26 04:33:30;;;;;;;9.97;5.70;;;;;20.60;101046.00;;;;2064901;28;20213;-60
2024/01/26 04:34:30;;;;;;;8.30;5.60;;;;;20.60;101040.00;;;;2071730;28;20206;-57
2024/01/26 04:35:30;;;;;;;7.03;5.23;;;;;20.60;101041.00;;;;2073313;28;20221;-60
2024/01/26 04:36:31;;;;;;;9.40;6.00;;;;;20.60;101032.00;;;;2067342;28;20220;-59
2024/01/26 04:37:31;;;;;;;8.30;5.20;;;;;20.60;101023.00;;;;2071998;28;20227;-59
2024/01/26 04:38:31;;;;;;;7.30;5.47;;;;;20.70;101021.00;;;;2064474;28;20217;-61
2024/01/26 04:39:32;;;;;;;7.90;5.00;;;;;20.70;101018.00;;;;2070765;28;20209;-59
2024/01/26 04:40:32;;;;;;;8.13;5.37;;;;;20.60;101027.00;;;;2078309;28;20241;-60
2024/01/26 04:41:32;;;;;;;8.53;6.10;;;;;20.60;101021.00;;;;2076043;28;20263;-61
2024/01/26 04:42:34;;;;;;;7.20;5.13;;;;;20.60;101013.00;;;;2078507;28;20279;-60
2024/01/26 04:43:34;;;;;;;7.75;5.55;;;;;20.60;101015.00;;;;2060165;28;20957;-58
2024/01/26 04:44:35;;;;;;;7.30;5.13;;;;;20.60;101014.00;;;;2071569;28;20251;-62
2024/01/26 04:45:35;;;;;;;6.50;4.70;;;;;20.60;101014.00;;;;2075139;28;20221;-62
2024/01/26 04:46:36;;;;;;;7.00;4.50;;;;;20.60;101008.00;;;;2073735;28;20244;-60
2024/01/26 04:47:36;;;;;;;7.83;5.17;;;;;20.60;101012.00;;;;2078230;28;20213;-59
2024/01/26 04:48:37;;;;;;;7.53;4.90;;;;;20.60;101015.00;;;;2059168;28;20762;-59
2024/01/26 04:49:37;;;;;;;7.60;4.50;;;;;20.60;101006.00;;;;2071867;28;20217;-62
2024/01/26 04:50:37;;;;;;;7.73;4.70;;;;;20.60;101018.00;;;;2068869;28;20218;-59
2024/01/26 04:51:38;;;;;;;5.23;4.17;;;;;20.60;101014.00;;;;2073523;28;20213;-59
2024/01/26 04:52:38;;;;;;;7.63;4.70;;;;;20.60;101009.00;;;;2075496;28;20224;-59
2024/01/26 04:53:38;;;;;;;6.57;4.80;;;;;20.60;101014.00;;;;2059439;28;20214;-57
2024/01/26 04:54:39;;;;;;;7.40;4.87;;;;;20.60;101010.00;;;;2073937;28;20241;-58